x

Patapsco, Md (44043) Weather Station

4:50pm - Fri 22nd May 2015 All times are EDT. -4 hours from GMT.

  • Wind
    20mph, 25mph gusts
  • Air Temp 72°f
  • Sea Pressure 1017.9mb
  • Patapsco, Md
  • Patapsco, Md

More Historic Weather Station data

Upgrade to MSW Pro to gain access to the past 30 days of data for over 8000 Wavebouys and Weather Stations around the globe.

Join Pro

Comparision Forecast

View Surf forecast
   
Fri 05/22 4:50pm  -   -  20 25 mph 1017.9mb - 72f
4:40pm  -   -  18 25 mph 1017.9mb - 72f
4:30pm  -   -  20 25 mph 1018mb - 72f
4:20pm  -   -  22 29 mph 1017.9mb - 72f
4:10pm  -   -  16 20 mph 1018.1mb - 72f
4:00pm 1.3ft 2s 16 22 mph 1018.1mb 67f 71f
3:50pm  -   -  16 22 mph 1018.1mb - 71f
3:40pm  -   -  18 22 mph 1018.1mb - 71f
3:30pm  -   -  13 22 mph 1018.2mb - 71f
3:20pm  -   -  13 22 mph 1018.3mb - 70f
3:10pm  -   -  16 20 mph 1018.3mb - 70f
3:00pm 1.3ft 2s 16 20 mph 1018.3mb 67f 70f
2:50pm  -   -  16 20 mph 1018.4mb - 69f
2:40pm  -   -  16 22 mph 1018.4mb - 69f
2:30pm  -   -  20 25 mph 1018.4mb - 69f
2:20pm  -   -  16 18 mph 1018.6mb - 69f
2:10pm  -   -  16 22 mph 1018.6mb - 69f
2:00pm 1.3ft 2s 16 22 mph 1018.5mb 67f 68f
1:50pm  -   -  16 20 mph 1018.5mb - 68f
1:40pm  -   -  16 20 mph 1018.6mb - 68f
1:30pm  -   -  16 20 mph 1018.6mb - 68f
1:20pm  -   -  18 25 mph 1018.6mb - 68f
1:10pm  -   -  20 27 mph 1018.7mb - 67f
1:00pm 1.3ft 3s 18 20 mph 1018.8mb 66f 67f
12:50pm  -   -  16 20 mph 1018.8mb - 67f
12:40pm  -   -  18 22 mph 1018.8mb - 67f
12:30pm  -   -  16 20 mph 1018.9mb - 67f
12:20pm  -   -  16 20 mph 1018.9mb - 66f
12:10pm  -   -  16 18 mph 1018.9mb - 66f
12:00pm 1.3ft 3s 16 20 mph 1018.9mb 66f 66f
11:50am  -   -  16 20 mph 1018.9mb - 66f
11:40am  -   -  16 20 mph 1018.8mb - 65f
11:30am  -   -  13 18 mph 1018.8mb - 65f
11:20am  -   -  16 18 mph 1018.7mb - 65f
11:10am  -   -  16 20 mph 1018.6mb - 65f
10:50am  -   -  13 18 mph 1018.5mb - 64f
10:40am  -   -  16 18 mph 1018.5mb - 63f
10:30am  -   -  16 20 mph 1018.4mb - 63f
10:20am  -   -  16 18 mph 1018.4mb - 62f
10:10am  -   -  13 16 mph 1018.2mb - 62f
10:00am 1.3ft 3s 16 18 mph 1018.1mb 66f 61f
9:50am  -   -  16 20 mph 1018.1mb - 60f
9:40am  -   -  18 22 mph 1018mb - 60f
9:20am  -   -  18 20 mph 1017.9mb - 59f
9:10am  -   -  18 22 mph 1017.8mb - 59f
9:00am 1ft 2s 18 20 mph 1017.8mb 66f 58f
8:50am  -   -  18 20 mph 1017.7mb - 58f
8:40am  -   -  18 22 mph 1017.6mb - 58f
8:30am  -   -  16 18 mph 1017.6mb - 57f
8:20am  -   -  13 20 mph 1017.5mb - 56f
8:10am  -   -  13 18 mph 1017.4mb - 56f
8:00am 1ft 2s 16 18 mph 1017.3mb 66f 55f
7:50am  -   -  16 18 mph 1017.2mb - 55f
7:40am  -   -  16 18 mph 1017.1mb - 55f
7:30am  -   -  16 20 mph 1017mb - 55f
7:20am  -   -  16 22 mph 1016.8mb - 56f
7:10am  -   -  18 22 mph 1016.7mb - 56f
7:00am 1.3ft 2s 18 22 mph 1016.6mb 66f 56f
6:50am  -   -  18 22 mph 1016.6mb - 56f
6:40am  -   -  18 22 mph 1016.5mb - 55f
6:30am  -   -  18 22 mph 1016.3mb - 55f
6:20am  -   -  13 18 mph 1016.3mb - 55f
6:10am  -   -  16 20 mph 1016.2mb - 55f
6:00am 1ft 2s 16 20 mph 1016.1mb 66f 55f
5:50am  -   -  16 20 mph 1016mb - 55f
5:40am  -   -  18 20 mph 1015.9mb - 55f
5:30am  -   -  18 22 mph 1015.8mb - 55f
5:20am  -   -  18 22 mph 1015.7mb - 56f
5:10am  -   -  18 25 mph 1015.5mb - 56f
5:00am 1.3ft 2s 20 22 mph 1015.3mb 66f 56f
4:50am  -   -  18 22 mph 1015.2mb - 56f
4:40am  -   -  20 22 mph 1015mb - 56f
4:30am  -   -  18 22 mph 1014.9mb - 56f
4:20am  -   -  18 22 mph 1014.8mb - 56f
4:10am  -   -  18 25 mph 1014.6mb - 56f
4:00am 1.3ft 2s 18 25 mph 1014.5mb 66f 57f
3:50am  -   -  18 25 mph 1014.4mb - 57f
3:40am  -   -  20 25 mph 1014.2mb - 57f
3:30am  -   -  18 22 mph 1014.1mb - 57f
3:20am  -   -  20 22 mph 1014.1mb - 57f
3:10am  -   -  18 22 mph 1013.9mb - 57f
3:00am  -   -  13 20 mph 1014mb 66f 56f
2:50am  -   -  18 22 mph 1014.1mb - 57f
2:40am  -   -  16 20 mph 1014.1mb - 56f
2:30am  -   -  13 18 mph 1014.3mb - 56f
2:20am  -   -  11 18 mph 1014.3mb - 56f
2:10am  -   -  13 18 mph 1014.3mb - 56f
2:00am 1ft 2s 13 20 mph 1014.3mb 66f 56f
1:50am  -   -  13 18 mph 1014.3mb - 56f
1:40am  -   -  13 20 mph 1014.4mb - 56f
1:30am  -   -  13 18 mph 1014.4mb - 56f
1:20am  -   -  13 18 mph 1014.2mb - 56f
1:10am  -   -  13 18 mph 1014.3mb - 56f
1:00am 1ft 2s 13 18 mph 1014.4mb 66f 56f
12:50am  -   -  16 20 mph 1014.3mb - 56f
12:40am  -   -  13 18 mph 1014.2mb - 56f
12:30am  -   -  13 16 mph 1014.2mb - 56f
12:20am  -   -  13 16 mph 1014.1mb - 56f
12:10am  -   -  13 18 mph 1014mb - 56f
12:00am 0.7ft  -  11 16 mph 1013.9mb 66f 56f
Thu 05/21 11:50pm  -   -  9 11 mph 1013.9mb - 56f
11:40pm  -   -  9 13 mph 1014mb - 55f
11:30pm  -   -  11 13 mph 1014mb - 55f
11:20pm  -   -  11 13 mph 1014mb - 55f
11:10pm  -   -  9 13 mph 1013.8mb - 54f
11:00pm  -   -  9 13 mph 1013.9mb 67f 54f
10:50pm  -   -  11 13 mph 1014mb - 54f
10:40pm  -   -  11 13 mph 1014.1mb - 54f
10:30pm  -   -  11 16 mph 1014.1mb - 54f
10:20pm  -   -  9 13 mph 1014.1mb - 54f
10:10pm  -   -  9 11 mph 1014.1mb - 54f
10:00pm 0.7ft  -  9 11 mph 1014.1mb 67f 54f
9:50pm  -   -  9 11 mph 1014mb - 54f
9:40pm  -   -  9 11 mph 1013.9mb - 54f
9:30pm  -   -  9 13 mph 1013.9mb - 54f
9:20pm  -   -  9 11 mph 1014mb - 54f
9:10pm  -   -  9 11 mph 1014mb - 54f
9:00pm 0.7ft  -  7 11 mph 1014mb 67f 54f
8:50pm  -   -  7 11 mph 1014mb - 54f
8:40pm  -   -  7 9 mph 1014mb - 54f
8:30pm  -   -  9 11 mph 1014.3mb - 54f
8:10pm  -   -  9 13 mph 1014.2mb - 54f
8:00pm  -   -  9 13 mph 1014.2mb 67f 54f
7:50pm  -   -  9 13 mph 1014.2mb - 54f
7:40pm  -   -  9 13 mph 1014.2mb - 54f
7:30pm  -   -  7 11 mph 1014.2mb - 54f
7:20pm  -   -  7 11 mph 1014.1mb - 54f
7:10pm  -   -  7 9 mph 1014.1mb - 54f
7:00pm 0.7ft  -  7 11 mph 1014mb 67f 54f
6:50pm  -   -  7 11 mph 1013.8mb - 54f
6:40pm  -   -  7 11 mph 1013.6mb - 54f
6:30pm  -   -  9 13 mph 1013.5mb - 54f
6:20pm  -   -  9 13 mph 1013.5mb - 53f
6:10pm  -   -  9 13 mph 1013.6mb - 53f
6:00pm  -   -  9 11 mph 1013.6mb 67f 53f
5:50pm  -   -  9 13 mph 1013.6mb - 53f
5:40pm  -   -  9 11 mph 1013.8mb - 52f
5:30pm  -   -  9 11 mph 1013.9mb - 52f
5:20pm  -   -  9 13 mph 1013.9mb - 52f
5:10pm  -   -  11 16 mph 1013.8mb - 52f
5:00pm  -   -  11 13 mph 1013.8mb 67f 51f
4:50pm  -   -  11 13 mph 1013.9mb - 52f
4:40pm  -   -  9 13 mph 1014.1mb - 52f
4:30pm  -   -  9 13 mph 1014.2mb - 51f
4:20pm  -   -  9 11 mph 1014.1mb - 51f
4:10pm  -   -  9 13 mph 1014.2mb - 51f
4:00pm  -   -  9 13 mph 1014.5mb 67f 51f
3:50pm  -   -  11 13 mph 1014.6mb - 51f
3:40pm  -   -  11 13 mph 1014.6mb - 51f
3:30pm  -   -  11 13 mph 1014.7mb - 51f
3:20pm  -   -  9 11 mph 1015mb - 51f
3:10pm  -   -  9 11 mph 1014.9mb - 51f
3:00pm  -   -  9 11 mph 1015mb 67f 51f
2:50pm  -   -  9 11 mph 1015.2mb - 51f
2:40pm  -   -  9 11 mph 1015.4mb - 51f
2:30pm  -   -  9 11 mph 1015.5mb - 50f
2:20pm  -   -  9 11 mph 1015.6mb - 50f
2:10pm  -   -  9 11 mph 1015.8mb - 50f
2:00pm 0.3ft  -  9 11 mph 1015.9mb 67f 50f
1:50pm  -   -  7 11 mph 1016.1mb - 51f
1:40pm  -   -  9 11 mph 1016.1mb - 51f
1:30pm  -   -  7 11 mph 1016.3mb - 51f
1:20pm  -   -  7 11 mph 1016.3mb - 50f
1:10pm  -   -  4 9 mph 1016.6mb - 50f
1:00pm 0.7ft  -  7 9 mph 1016.8mb 67f 51f
12:50pm  -   -  4 7 mph 1017.1mb - 51f
12:40pm  -   -  4 9 mph 1017.1mb - 51f
12:30pm  -   -  4 9 mph 1017.1mb - 52f
12:20pm  -   -  4 9 mph 1017.3mb - 52f
12:10pm  -   -  4 9 mph 1017.2mb - 53f
12:00pm 0.7ft  -  7 9 mph 1017.2mb 68f 53f
11:50am  -   -  7 11 mph 1017.2mb - 54f
11:40am  -   -  7 9 mph 1017.4mb - 55f
11:30am  -   -  4 9 mph 1017.5mb - 55f
11:20am  -   -  7 9 mph 1017.5mb - 55f
11:10am  -   -  7 9 mph 1017.4mb - 55f
11:00am 1ft 2s 7 9 mph 1017.4mb 68f 55f
10:50am  -   -  7 11 mph 1017.3mb - 56f
10:40am  -   -  7 9 mph 1017.4mb - 56f
10:30am  -   -  7 11 mph 1017.3mb - 56f
10:20am  -   -  7 11 mph 1017.2mb - 56f
10:10am  -   -  7 13 mph 1017.1mb - 56f
10:00am 1ft 3s 9 13 mph 1016.9mb 68f 56f
9:50am  -   -  9 13 mph 1017mb - 56f
9:40am  -   -  9 11 mph 1017mb - 57f
9:30am  -   -  11 16 mph 1016.6mb - 57f
9:20am  -   -  11 16 mph 1016.6mb - 57f
9:10am  -   -  11 16 mph 1016.6mb - 57f
9:00am 1ft 3s 11 13 mph 1016.6mb 68f 58f
8:50am  -   -  11 16 mph 1016.5mb - 58f
8:40am  -   -  11 16 mph 1016.6mb - 58f
8:30am  -   -  11 16 mph 1016.4mb - 58f
8:20am  -   -  13 18 mph 1016.2mb - 58f
8:10am  -   -  13 18 mph 1016.2mb - 58f
8:00am 1ft 2s 13 18 mph 1015.9mb 68f 58f
7:50am  -   -  13 18 mph 1015.9mb - 58f
7:40am  -   -  13 18 mph 1015.9mb - 58f
7:30am  -   -  13 16 mph 1015.8mb - 58f
7:20am  -   -  13 16 mph 1015.9mb - 58f
7:10am  -   -  11 16 mph 1016.1mb - 58f
7:00am 1ft 2s 11 13 mph 1016.3mb 68f 58f
6:50am  -   -  11 13 mph 1016.5mb - 58f
6:40am  -   -  11 16 mph 1016.4mb - 58f
6:30am  -   -  11 13 mph 1016.5mb - 58f
6:20am  -   -  11 13 mph 1016.4mb - 58f
6:10am  -   -  11 16 mph 1016.3mb - 58f
6:00am  -   -  13 16 mph 1016.1mb 68f 59f
5:50am  -   -  11 16 mph 1016.2mb - 59f
5:40am  -   -  11 13 mph 1016.2mb - 59f
5:30am  -   -  9 13 mph 1016.4mb - 59f
5:20am  -   -  9 11 mph 1016.5mb - 59f
5:10am  -   -  9 11 mph 1016.4mb - 59f
5:00am 1ft 2s 9 13 mph 1016.3mb 68f 59f
4:50am  -   -  11 13 mph 1016.1mb - 59f
4:40am  -   -  11 16 mph 1016mb - 59f
4:30am  -   -  11 16 mph 1016mb - 59f
4:20am  -   -  11 16 mph 1016mb - 60f
4:10am  -   -  13 16 mph 1015.8mb - 60f
4:00am 1.3ft 2s 13 18 mph 1015.8mb 69f 60f
3:50am  -   -  16 18 mph 1015.9mb - 60f
3:40am  -   -  13 18 mph 1016.1mb - 60f
3:30am  -   -  13 16 mph 1016.3mb - 61f
3:20am  -   -  13 16 mph 1016.2mb - 61f
3:10am  -   -  13 16 mph 1016.2mb - 61f
3:00am 1.6ft 2s 13 18 mph 1016.1mb 69f 61f
2:50am  -   -  13 16 mph 1016.2mb - 61f
2:40am  -   -  13 16 mph 1016mb - 61f
2:30am  -   -  13 18 mph 1015.9mb - 62f
2:20am  -   -  13 16 mph 1016mb - 62f
2:10am  -   -  13 18 mph 1016mb - 62f
2:00am 1.6ft 2s 13 18 mph 1015.9mb 69f 62f
1:50am  -   -  13 18 mph 1016mb - 62f
1:40am  -   -  13 18 mph 1016mb - 62f
1:30am  -   -  16 18 mph 1015.9mb - 62f
1:20am  -   -  13 18 mph 1016mb - 63f
1:10am  -   -  16 20 mph 1016mb - 63f
1:00am 1.6ft 3s 18 20 mph 1015.9mb 69f 63f
12:50am  -   -  18 20 mph 1016.1mb - 63f
12:40am  -   -  16 20 mph 1016.1mb - 63f
12:30am  -   -  16 20 mph 1016.4mb - 63f
12:20am  -   -  16 18 mph 1016.5mb - 63f
12:10am  -   -  16 18 mph 1016.4mb - 63f
12:00am 1.6ft 3s 18 20 mph 1016.4mb 69f 63f
Wed 05/20 11:50pm  -   -  18 20 mph 1016.4mb - 63f
11:40pm  -   -  16 20 mph 1016.5mb - 63f
11:30pm  -   -  16 20 mph 1016.5mb - 63f
11:20pm  -   -  16 20 mph 1016.6mb - 63f
11:10pm  -   -  16 20 mph 1016.7mb - 64f
11:00pm 1.3ft 2s 16 20 mph 1016.9mb 70f 64f
10:50pm  -   -  16 20 mph 1016.8mb - 64f
10:40pm  -   -  18 20 mph 1016.8mb - 64f
10:30pm  -   -  18 20 mph 1016.8mb - 64f
10:20pm  -   -  16 18 mph 1016.9mb - 64f
10:10pm  -   -  18 20 mph 1016.8mb - 64f
10:00pm 1.3ft 2s 16 20 mph 1016.7mb 70f 64f
9:50pm  -   -  16 20 mph 1016.7mb - 64f
9:40pm  -   -  16 18 mph 1016.6mb - 65f
9:30pm  -   -  16 18 mph 1016.6mb - 65f
9:20pm  -   -  16 20 mph 1016.6mb - 65f
9:10pm  -   -  18 20 mph 1016.5mb - 65f
9:00pm 1.3ft 2s 18 20 mph 1016.4mb 70f 65f
8:50pm  -   -  18 20 mph 1016.3mb - 65f
8:40pm  -   -  16 20 mph 1016.2mb - 65f
8:30pm  -   -  18 20 mph 1016.1mb - 65f
8:20pm  -   -  18 20 mph 1016.1mb - 65f
8:10pm  -   -  16 20 mph 1015.9mb - 65f
8:00pm 1.3ft 3s 13 18 mph 1015.8mb 70f 66f
7:50pm  -   -  16 20 mph 1015.6mb - 66f
7:40pm  -   -  16 20 mph 1015.6mb - 66f
7:30pm  -   -  16 18 mph 1015.5mb - 66f
7:20pm  -   -  13 18 mph 1015.5mb - 67f
7:10pm  -   -  13 18 mph 1015.4mb - 67f
7:00pm 1ft 2s 13 18 mph 1015.4mb 70f 67f
6:50pm  -   -  13 18 mph 1015.3mb - 67f
6:40pm  -   -  11 16 mph 1015.2mb - 67f
6:30pm  -   -  11 16 mph 1015.1mb - 67f
6:20pm  -   -  11 16 mph 1015.1mb - 67f
6:10pm  -   -  11 16 mph 1015.1mb - 67f
6:00pm 1.3ft 2s 13 18 mph 1015mb 71f 68f
5:50pm  -   -  11 18 mph 1015mb - 68f
5:40pm  -   -  13 20 mph 1014.9mb - 68f
5:30pm  -   -  13 20 mph 1015mb - 68f
5:20pm  -   -  11 18 mph 1014.9mb - 68f
5:10pm  -   -  13 18 mph 1014.9mb - 68f
5:00pm 1.3ft 2s 13 20 mph 1014.9mb 71f 68f
4:50pm  -   -  11 16 mph 1015.1mb - 67f
4:40pm  -   -  7 13 mph 1015.1mb - 67f
4:30pm  -   -  13 18 mph 1014.9mb - 67f
4:20pm  -   -  11 16 mph 1014.9mb - 67f
4:10pm  -   -  13 16 mph 1015mb - 67f
4:00pm 1ft 2s 13 16 mph 1015mb 71f 67f
3:50pm  -   -  11 18 mph 1014.9mb - 67f
3:40pm  -   -  11 16 mph 1014.9mb - 67f
3:30pm  -   -  11 18 mph 1014.9mb - 67f
3:20pm  -   -  13 18 mph 1015mb - 66f
3:10pm  -   -  13 18 mph 1015.1mb - 66f
3:00pm 1.3ft 2s 13 20 mph 1015.1mb 70f 66f
2:50pm  -   -  16 20 mph 1015.2mb - 66f
2:40pm  -   -  16 20 mph 1015.2mb - 66f
2:30pm  -   -  16 20 mph 1015.2mb - 65f
2:20pm  -   -  13 18 mph 1015.2mb - 65f
2:10pm  -   -  16 18 mph 1015.3mb - 65f
2:00pm 1.3ft 2s 16 20 mph 1015.4mb 70f 65f
1:50pm  -   -  13 18 mph 1015.4mb - 65f
1:40pm  -   -  16 20 mph 1015.4mb - 64f
1:30pm  -   -  18 22 mph 1015.4mb - 65f
1:20pm  -   -  16 20 mph 1015.4mb - 64f
1:10pm  -   -  13 18 mph 1015.3mb - 64f
1:00pm 1.3ft 2s 16 22 mph 1015.2mb 69f 64f
12:50pm  -   -  13 20 mph 1015.3mb - 64f
12:40pm  -   -  16 20 mph 1015.3mb - 64f
12:30pm  -   -  16 20 mph 1015.5mb - 64f
12:20pm  -   -  13 18 mph 1015.7mb - 64f
12:10pm  -   -  16 20 mph 1015.7mb - 63f
12:00pm 1.6ft 2s 16 22 mph 1015.7mb 68f 63f
11:50am  -   -  16 22 mph 1015.8mb - 63f
11:40am  -   -  18 22 mph 1015.8mb - 62f
11:30am  -   -  16 20 mph 1015.7mb - 62f
11:20am  -   -  16 22 mph 1015.7mb - 62f
11:10am  -   -  18 20 mph 1015.6mb - 62f
11:00am 1.6ft 2s 18 22 mph 1015.5mb 68f 62f
10:50am  -   -  18 22 mph 1015.5mb - 62f
10:40am  -   -  16 22 mph 1015.5mb - 62f
10:30am  -   -  18 22 mph 1015.4mb - 62f
10:20am  -   -  16 22 mph 1015.5mb - 61f
10:10am  -   -  18 25 mph 1015.6mb - 61f
10:00am 1.6ft 3s 20 27 mph 1015.4mb 68f 61f
9:50am  -   -  18 25 mph 1015.4mb - 61f
9:40am  -   -  18 25 mph 1015.5mb - 61f
9:30am  -   -  18 25 mph 1015.6mb - 61f
9:20am  -   -  18 22 mph 1015.6mb - 61f
9:10am  -   -  18 22 mph 1015.6mb - 61f
9:00am 1.6ft 3s 20 25 mph 1015.4mb 68f 61f
8:50am  -   -  18 22 mph 1015.5mb - 61f
8:40am  -   -  20 27 mph 1015.3mb - 61f
8:30am  -   -  18 22 mph 1015.3mb - 61f
8:20am  -   -  18 22 mph 1015.2mb - 61f
8:10am  -   -  18 25 mph 1015.1mb - 61f
8:00am 1.3ft 3s 18 25 mph 1015mb 68f 61f
7:50am  -   -  16 20 mph 1015.1mb - 61f
7:40am  -   -  18 22 mph 1014.9mb - 61f
7:30am  -   -  18 22 mph 1014.9mb - 61f
7:20am  -   -  18 22 mph 1014.9mb - 61f
7:10am  -   -  18 25 mph 1014.8mb - 61f
7:00am 1.6ft 3s 16 22 mph 1014.8mb 68f 62f
6:50am  -   -  18 22 mph 1014.6mb - 62f
6:40am  -   -  18 22 mph 1014.5mb - 62f
6:30am  -   -  20 22 mph 1014.4mb - 62f
6:20am  -   -  20 27 mph 1014.3mb - 62f
6:10am  -   -  20 25 mph 1014.1mb - 62f
6:00am 1.6ft 3s 20 25 mph 1014.1mb 68f 63f
5:50am  -   -  20 25 mph 1014mb - 63f
5:40am  -   -  22 27 mph 1013.8mb - 63f
5:30am  -   -  22 27 mph 1013.9mb - 63f
5:20am  -   -  22 27 mph 1013.8mb - 64f
5:10am  -   -  20 27 mph 1013.9mb - 64f
5:00am 2.5ft 3s 20 25 mph 1013.9mb 69f 65f
4:50am  -   -  20 25 mph 1013.7mb - 65f
4:40am  -   -  22 27 mph 1013.7mb - 65f
4:30am  -   -  22 27 mph 1013.7mb - 65f
4:20am  -   -  22 27 mph 1013.7mb - 66f
4:10am  -   -  22 27 mph 1013.6mb - 67f
4:00am 2.5ft 3s 20 27 mph 1013.6mb 69f 68f
3:50am  -   -  20 27 mph 1013.4mb - 68f
3:40am  -   -  22 27 mph 1013.2mb - 69f
3:30am  -   -  22 27 mph 1012.9mb - 69f
3:20am  -   -  22 27 mph 1012.5mb - 70f
3:10am  -   -  20 27 mph 1012.5mb - 71f
3:00am 2ft 2s 20 25 mph 1012.6mb 69f 71f
2:50am  -   -  20 25 mph 1012.4mb - 71f
2:40am  -   -  20 25 mph 1012.5mb - 72f
2:30am  -   -  18 22 mph 1012.4mb - 72f
2:20am  -   -  18 22 mph 1012.3mb - 73f
2:10am  -   -  16 22 mph 1012.3mb - 73f
2:00am 1.3ft 2s 16 20 mph 1012.2mb 71f 74f
1:50am  -   -  13 18 mph 1012.2mb - 74f
1:40am  -   -  13 18 mph 1012.1mb - 74f
1:30am  -   -  11 16 mph 1012mb - 75f
1:20am  -   -  13 18 mph 1011.9mb - 75f
1:10am  -   -  13 18 mph 1011.7mb - 76f
1:00am 1.3ft 2s 16 20 mph 1011.8mb 72f 76f
12:40am  -   -  18 22 mph 1011.5mb - 76f
12:30am  -   -  18 22 mph 1011.5mb - 77f
12:20am  -   -  18 22 mph 1011.4mb - 77f
12:10am  -   -  9 16 mph 1011.4mb - 76f
12:00am  -   -  9 11 mph 1011.4mb 72f 76f
Tue 05/19 11:50pm  -   -  11 13 mph 1011.3mb - 76f
11:40pm  -   -  13 16 mph 1011.1mb - 77f
11:30pm  -   -  13 16 mph 1011.1mb - 77f
11:20pm  -   -  11 16 mph 1011.2mb - 77f
11:10pm  -   -  9 11 mph 1011.3mb - 77f
11:00pm  -   -  9 11 mph 1011.3mb 71f 76f
10:50pm  -   -  4 7 mph 1011.5mb - 76f
10:40pm  -   -  7
mph
1011.5mb - 75f
10:30pm  -   -  4
mph
1011.5mb - 75f
10:20pm  -   -  4 7 mph 1011.5mb - 75f
10:10pm  -   -  7
mph
1011.3mb - 76f
10:00pm  -   -  7
mph
1011.3mb 71f 76f
9:50pm  -   -  7 9 mph 1011.3mb - 75f
9:40pm  -   -  7 9 mph 1011.3mb - 75f
9:30pm  -   -  7 9 mph 1011.2mb - 75f
9:20pm  -   -  9
mph
1011.1mb - 75f
9:10pm  -   -  9 11 mph 1011mb - 75f
9:00pm  -   -  7 9 mph 1010.9mb 71f 75f
8:50pm  -   -  7 9 mph 1010.9mb - 75f
8:40pm  -   -  7 9 mph 1010.7mb - 75f
8:30pm  -   -  7 9 mph 1010.7mb - 75f
8:20pm  -   -  11
mph
1010.6mb - 75f
8:10pm  -   -  11 13 mph 1010.4mb - 75f
8:00pm 0.3ft  -  13
mph
1010.3mb 72f 75f
7:50pm  -   -  11 13 mph 1010.2mb - 76f
7:40pm  -   -  11 13 mph 1010.1mb - 76f
7:30pm  -   -  11
mph
1010.1mb - 76f
7:20pm  -   -  9 11 mph 1010.1mb - 76f
7:10pm  -   -  9 11 mph 1010mb - 75f
7:00pm 0.3ft  -  9 11 mph 1010.1mb 72f 75f
6:50pm  -   -  9
mph
1010.2mb - 75f
6:40pm  -   -  7 9 mph 1010.4mb - 75f
6:30pm  -   -  7 9 mph 1010.4mb - 75f
6:20pm  -   -  9 11 mph 1010.3mb - 75f
6:10pm  -   -  9
mph
1010.4mb - 75f
6:00pm 0.3ft  -  9 11 mph 1010.4mb 72f 74f
5:50pm  -   -  9 11 mph 1010.4mb - 74f
5:40pm  -   -  9
mph
1010.5mb - 74f
5:30pm  -   -  9
mph
1010.6mb - 74f
5:20pm  -   -  9
mph
1010.8mb - 74f
5:10pm  -   -  7 9 mph 1011.1mb - 74f
5:00pm 0.3ft  -  9
mph
1011.1mb 72f 74f
4:50pm  -   -  7 9 mph 1011.2mb - 74f
4:40pm  -   -  7 9 mph 1011.1mb - 74f
4:30pm  -   -  9 11 mph 1011.2mb - 74f
4:20pm  -   -  7 9 mph 1011.5mb - 74f
4:10pm  -   -  7 9 mph 1011.7mb - 74f
4:00pm 0.3ft  -  7 9 mph 1011.9mb 71f 74f
3:50pm  -   -  7 9 mph 1012mb - 73f
3:40pm  -   -  9
mph
1012.2mb - 74f
3:30pm  -   -  7
mph
1012.4mb - 74f
3:20pm  -   -  7 9 mph 1012.5mb - 74f
3:10pm  -   -  7 9 mph 1012.6mb - 73f
3:00pm 0.3ft  -  7 9 mph 1012.7mb 72f 73f
2:50pm  -   -  7 9 mph 1012.9mb - 73f
2:40pm  -   -  7 9 mph 1013mb - 73f
2:30pm  -   -  7 9 mph 1013mb - 73f
2:20pm  -   -  7 9 mph 1013.1mb - 73f
2:10pm  -   -  7 9 mph 1013.1mb - 73f
2:00pm 0.3ft  -  7 9 mph 1013.2mb 72f 72f
1:50pm  -   -  7 9 mph 1013.3mb - 72f
1:40pm  -   -  7 9 mph 1013.4mb - 72f
1:30pm  -   -  7 9 mph 1013.4mb - 71f
1:20pm  -   -  7 9 mph 1013.5mb - 71f
1:10pm  -   -  9
mph
1013.6mb - 71f
1:00pm  -   -  7 9 mph 1013.8mb 71f 70f
12:50pm  -   -  9
mph
1013.8mb - 70f
12:40pm  -   -  7 9 mph 1014mb - 70f
12:30pm  -   -  7 9 mph 1014.1mb - 70f
12:20pm  -   -  9
mph
1014.2mb - 70f
12:10pm  -   -  9
mph
1014.3mb - 69f
12:00pm 0.3ft  -  7 9 mph 1014.4mb 70f 69f
11:50am  -   -  7
mph
1014.5mb - 69f
11:40am  -   -  7
mph
1014.6mb - 69f
11:30am  -   -  7
mph
1014.5mb - 69f
11:20am  -   -  7
mph
1014.6mb - 69f
11:10am  -   -  7
mph
1014.6mb - 68f
11:00am 0.3ft  -  7
mph
1014.7mb 70f 68f
10:50am  -   -  7
mph
1014.8mb - 68f
10:40am  -   -  7
mph
1014.8mb - 68f
10:30am  -   -  7
mph
1014.7mb - 68f
10:20am  -   -  4 7 mph 1014.8mb - 68f
10:10am  -   -  4 7 mph 1014.8mb - 68f
10:00am 0.3ft  -  4 7 mph 1014.8mb 69f 67f
9:50am  -   -  4 7 mph 1014.8mb - 67f
9:40am  -   -  4 7 mph 1014.8mb - 67f
9:30am  -   -  2 4 mph 1014.9mb - 67f
9:20am  -   -  4
mph
1015mb - 67f
9:10am  -   -  4
mph
1014.9mb - 67f
9:00am  -   -  4
mph
1015mb 70f 67f
8:50am  -   -  4 7 mph 1014.9mb - 67f
8:40am  -   -  4
mph
1014.8mb - 67f
8:30am  -   -  4
mph
1014.9mb - 67f
8:20am  -   -  4
mph
1015mb - 67f
8:10am  -   -  4
mph
1015.1mb - 67f
8:00am 0.3ft  -  4 7 mph 1015.1mb 70f 67f
7:50am  -   -  4 7 mph 1015mb - 67f
7:40am  -   -  4
mph
1014.8mb - 68f
7:30am  -   -  4 7 mph 1014.8mb - 68f
7:20am  -   -  4
mph
1014.9mb - 67f
7:10am  -   -  4
mph
1014.8mb - 67f
7:00am 0.3ft  -  4 7 mph 1014.7mb 68f 67f
6:50am  -   -  4
mph
1014.8mb - 68f
6:40am  -   -  4 7 mph 1014.9mb - 68f
6:30am  -   -  4 7 mph 1015mb - 68f
6:20am  -   -  4 7 mph 1015.1mb - 68f
6:10am  -   -  7 9 mph 1015.1mb - 68f
6:00am  -   -  7 9 mph 1015.1mb 68f 68f
5:50am  -   -  7 9 mph 1015.1mb - 67f
5:40am  -   -  7 9 mph 1015mb - 67f
5:30am  -   -  4 7 mph 1015.1mb - 67f
5:20am  -   -  4 7 mph 1015mb - 67f
5:10am  -   -  4
mph
1014.9mb - 67f
5:00am  -   -  2 4 mph 1014.9mb 69f 67f
4:50am  -   -  2 4 mph 1014.9mb - 67f
4:40am  -   -  2 4 mph 1015mb - 67f
4:30am  -   -  2 4 mph 1014.9mb - 67f
4:20am  -   -  2 4 mph 1014.9mb - 67f
4:10am  -   -  2 4 mph 1015.1mb - 67f
4:00am  -   -  4
mph
1015.3mb 70f 67f
3:50am  -   -  7 9 mph 1015.2mb - 67f
3:40am  -   -  7 9 mph 1015.2mb - 67f
3:30am  -   -  9 11 mph 1015.3mb - 67f
3:20am  -   -  7 9 mph 1015.5mb - 67f
3:10am  -   -  7 9 mph 1015.6mb - 67f
3:00am  -   -  7 9 mph 1015.6mb 70f 67f
2:50am  -   -  7 9 mph 1015.6mb - 68f
2:40am  -   -  7 9 mph 1015.6mb - 67f
2:30am  -   -  9 11 mph 1015.6mb - 67f
2:20am  -   -  11 13 mph 1015.7mb - 67f
2:10am  -   -  9 11 mph 1016.1mb - 67f
2:00am  -   -  11 13 mph 1016.5mb 69f 67f
1:50am  -   -  9 11 mph 1016.7mb - 67f
1:40am  -   -  9 11 mph 1016.8mb - 67f
1:30am  -   -  9 11 mph 1016.9mb - 67f
1:20am  -   -  9 11 mph 1017mb - 68f
1:10am  -   -  9
mph
1017.3mb - 68f
1:00am 1ft 2s 9 11 mph 1017.8mb 70f 68f
12:50am  -   -  9 11 mph 1018.1mb - 68f
12:40am  -   -  7 9 mph 1018mb - 67f
12:30am  -   -  11 16 mph 1017.4mb - 68f
12:20am  -   -  13 16 mph 1017.5mb - 68f
12:10am  -   -  11 16 mph 1017.8mb - 68f
12:00am 1ft 2s 13 16 mph 1017.9mb 70f 68f
Mon 05/18 11:50pm  -   -  13 16 mph 1017.9mb - 68f
11:40pm  -   -  11 13 mph 1017.9mb - 68f
11:30pm  -   -  7 9 mph 1018.1mb - 68f
11:20pm  -   -  7 9 mph 1018.2mb - 68f
11:10pm  -   -  9 11 mph 1018.2mb - 68f
11:00pm 1.3ft 2s 7 11 mph 1018.2mb 71f 68f
10:50pm  -   -  11 13 mph 1017.9mb - 68f
10:40pm  -   -  13 16 mph 1017.9mb - 69f
10:30pm  -   -  13 16 mph 1017.8mb - 69f
10:20pm  -   -  13 16 mph 1017.9mb - 69f
10:10pm  -   -  16 18 mph 1017.7mb - 69f
10:00pm 1ft 2s 13 16 mph 1017.9mb 71f 70f
9:50pm  -   -  13 16 mph 1018mb - 70f